Syria, VA

2:51 PM EDT on August 22, 2014 (GMT -0400)
Nethers Mill | Change Station
CLOSE
Current Station
Personal Weather Station
Location: Nethers, VA
Elevation: 814 ft
Nearby Weather Stations

Elev 814 ft 38.57 °N, 78.28 °W | Updated 3 seconds ago

Overcast
Overcast
74.3 °F
Feels Like 73 °F
N
0.0
Wind Variable Wind from South
Gusts 2.0 mph

Today
High -- | Low -- °F
--% Chance of Precip.
Yesterday
High -- | Low -- °F
Precip. -- in
6:33 AM 7:58 PM
Waning Crescent, 7% visible
Pressure 30.02 in
Visibility 10.0 miles
Clouds Scattered Clouds 1200 ft
Mostly Cloudy 2400 ft
Overcast 7000 ft
Heat Index 73 °F
Dew Point 70 °F
Humidity 88%
Rainfall 0.05 in
Snow Depth Not available.
UV 3 out of 12
Pollen 8.30 out of 12
Air Quality Not available.
Flu Activity Not available.
METAR KLUA 221835Z AUTO 00000KT 10SM SCT012 BKN024 OVC070 26/22 A3002 RMK AO2 LTG DSNT W

More Conditions Fewer Conditions

Pressure 30.02 in
Visibility 10.0 miles
Clouds Scattered Clouds 1200 ft
Mostly Cloudy 2400 ft
Overcast 7000 ft
Heat Index 73 °F
Dew Point 70 °F
Humidity 88%
Rainfall 0.05 in
Snow Depth Not available.
UV 3 out of 12
Pollen 8.30 out of 12
Air Quality Not available.
Flu Activity Not available.
METAR KLUA 221835Z AUTO 00000KT 10SM SCT012 BKN024 OVC070 26/22 A3002 RMK AO2 LTG DSNT W

More Conditions Fewer Conditions

10-Day Weather Forecast

Almanac

Astronomy

Aug. 22, 2014 Rise Set
Actual Time 6:33 AM EDT 7:58 PM EDT
Civil Twilight 6:06 AM EDT 8:25 PM EDT
Nautical Twilight 5:32 AM EDT 8:58 PM EDT
Astronomical Twilight 4:57 AM EDT 9:33 PM EDT
Moon 3:55 AM EDT 6:04 PM EDT
Length of Visible Light 14h 19m
Length of Day
13h 24m
Tomorrow will be 2m 18s shorter.
Waning Crescent, 7% of the Moon is Illuminated
Today
Waning Crescent
Aug 25
New
Sep 2
First Quarter
Sep 8
Full
Sep 15
Last Quarter

Today's Extremes

State Highs State Lows

Community

WunderPhotos

Upload Photos

1,746,216 photos uploaded!

Nearby

Snow Depth

Station Depth Elevation
No new snow has been reported.

Earthquake Activity

City Distance Mag. Time & Date
No recent earthquake activity has been reported nearby.
Minimum magnitude displayed is 2.5.

Coastal Water Temperatures

Place Temperature
No Stations Reporting

Nearby Weather Stations